sensor_id;sensor_type;location;lat;lon;timestamp;P1;durP1;ratioP1;P2;durP2;ratioP2
27187;SDS011;14708;50.872;5.306;2023-03-14T00:02:38;2.05;;;1.45;;
27187;SDS011;14708;50.872;5.306;2023-03-14T00:05:04;2.28;;;1.20;;
27187;SDS011;14708;50.872;5.306;2023-03-14T00:07:37;2.10;;;1.40;;
27187;SDS011;14708;50.872;5.306;2023-03-14T00:10:05;2.33;;;1.20;;
27187;SDS011;14708;50.872;5.306;2023-03-14T00:14:59;2.47;;;1.30;;
27187;SDS011;14708;50.872;5.306;2023-03-14T00:17:32;4.10;;;1.60;;
27187;SDS011;14708;50.872;5.306;2023-03-14T00:19:58;1.92;;;1.40;;
27187;SDS011;14708;50.872;5.306;2023-03-14T00:22:30;5.15;;;1.67;;
27187;SDS011;14708;50.872;5.306;2023-03-14T00:24:56;2.67;;;1.40;;
27187;SDS011;14708;50.872;5.306;2023-03-14T00:27:22;2.42;;;1.48;;
27187;SDS011;14708;50.872;5.306;2023-03-14T00:29:48;2.72;;;1.40;;
27187;SDS011;14708;50.872;5.306;2023-03-14T00:32:13;2.33;;;1.50;;
27187;SDS011;14708;50.872;5.306;2023-03-14T00:34:39;2.88;;;1.45;;
27187;SDS011;14708;50.872;5.306;2023-03-14T00:37:05;3.85;;;1.48;;
27187;SDS011;14708;50.872;5.306;2023-03-14T00:39:31;2.28;;;1.33;;
27187;SDS011;14708;50.872;5.306;2023-03-14T00:41:56;2.92;;;1.27;;
27187;SDS011;14708;50.872;5.306;2023-03-14T00:44:22;2.85;;;1.30;;
27187;SDS011;14708;50.872;5.306;2023-03-14T00:46:48;2.17;;;1.35;;
27187;SDS011;14708;50.872;5.306;2023-03-14T00:49:13;1.85;;;1.27;;
27187;SDS011;14708;50.872;5.306;2023-03-14T00:51:39;2.60;;;1.30;;
27187;SDS011;14708;50.872;5.306;2023-03-14T00:54:05;2.75;;;1.40;;
27187;SDS011;14708;50.872;5.306;2023-03-14T00:56:31;2.47;;;1.58;;
27187;SDS011;14708;50.872;5.306;2023-03-14T00:58:56;2.25;;;1.52;;
27187;SDS011;14708;50.872;5.306;2023-03-14T01:01:22;2.63;;;1.40;;
27187;SDS011;14708;50.872;5.306;2023-03-14T01:03:51;2.97;;;1.45;;
27187;SDS011;14708;50.872;5.306;2023-03-14T01:06:19;1.92;;;1.33;;
27187;SDS011;14708;50.872;5.306;2023-03-14T01:08:49;3.15;;;1.67;;
27187;SDS011;14708;50.872;5.306;2023-03-14T01:11:17;1.65;;;1.30;;
27187;SDS011;14708;50.872;5.306;2023-03-14T01:13:44;2.58;;;1.30;;
27187;SDS011;14708;50.872;5.306;2023-03-14T01:16:11;2.97;;;1.25;;
27187;SDS011;14708;50.872;5.306;2023-03-14T01:18:38;2.63;;;1.75;;
27187;SDS011;14708;50.872;5.306;2023-03-14T01:21:16;1.80;;;1.45;;
27187;SDS011;14708;50.872;5.306;2023-03-14T01:23:44;2.25;;;1.38;;
27187;SDS011;14708;50.872;5.306;2023-03-14T01:26:11;1.60;;;1.42;;
27187;SDS011;14708;50.872;5.306;2023-03-14T01:28:38;4.10;;;1.60;;
27187;SDS011;14708;50.872;5.306;2023-03-14T01:31:08;2.25;;;1.48;;
27187;SDS011;14708;50.872;5.306;2023-03-14T01:33:35;1.95;;;1.13;;
27187;SDS011;14708;50.872;5.306;2023-03-14T01:36:02;2.00;;;1.40;;
27187;SDS011;14708;50.872;5.306;2023-03-14T01:38:28;2.03;;;1.40;;
27187;SDS011;14708;50.872;5.306;2023-03-14T01:40:55;2.10;;;1.40;;
27187;SDS011;14708;50.872;5.306;2023-03-14T01:43:21;3.80;;;1.55;;
27187;SDS011;14708;50.872;5.306;2023-03-14T01:51:19;2.00;;;1.15;;
27187;SDS011;14708;50.872;5.306;2023-03-14T01:53:50;1.83;;;1.05;;
27187;SDS011;14708;50.872;5.306;2023-03-14T01:56:17;1.40;;;1.20;;
27187;SDS011;14708;50.872;5.306;2023-03-14T01:58:45;2.70;;;1.33;;
27187;SDS011;14708;50.872;5.306;2023-03-14T02:01:14;1.73;;;1.33;;
27187;SDS011;14708;50.872;5.306;2023-03-14T02:03:46;1.55;;;1.08;;
27187;SDS011;14708;50.872;5.306;2023-03-14T02:06:15;2.05;;;1.23;;
27187;SDS011;14708;50.872;5.306;2023-03-14T02:08:44;2.28;;;1.23;;
27187;SDS011;14708;50.872;5.306;2023-03-14T02:11:13;2.10;;;1.27;;
27187;SDS011;14708;50.872;5.306;2023-03-14T02:13:39;1.13;;;0.93;;
27187;SDS011;14708;50.872;5.306;2023-03-14T02:16:05;1.95;;;1.23;;
27187;SDS011;14708;50.872;5.306;2023-03-14T02:18:31;2.25;;;1.48;;
27187;SDS011;14708;50.872;5.306;2023-03-14T02:21:00;2.15;;;1.33;;
27187;SDS011;14708;50.872;5.306;2023-03-14T02:26:11;1.70;;;1.20;;
27187;SDS011;14708;50.872;5.306;2023-03-14T02:28:42;1.65;;;0.98;;
27187;SDS011;14708;50.872;5.306;2023-03-14T02:31:08;2.38;;;1.30;;
27187;SDS011;14708;50.872;5.306;2023-03-14T02:33:34;2.47;;;1.27;;
27187;SDS011;14708;50.872;5.306;2023-03-14T02:36:03;2.05;;;1.50;;
27187;SDS011;14708;50.872;5.306;2023-03-14T02:38:50;1.85;;;1.00;;
27187;SDS011;14708;50.872;5.306;2023-03-14T02:41:20;1.77;;;1.20;;
27187;SDS011;14708;50.872;5.306;2023-03-14T02:43:46;1.60;;;1.00;;
27187;SDS011;14708;50.872;5.306;2023-03-14T02:46:13;2.08;;;1.20;;
27187;SDS011;14708;50.872;5.306;2023-03-14T02:49:03;2.25;;;1.30;;
27187;SDS011;14708;50.872;5.306;2023-03-14T02:51:28;2.05;;;1.20;;
27187;SDS011;14708;50.872;5.306;2023-03-14T02:54:03;1.75;;;1.40;;
27187;SDS011;14708;50.872;5.306;2023-03-14T02:56:29;3.28;;;1.60;;
27187;SDS011;14708;50.872;5.306;2023-03-14T02:58:54;1.30;;;1.15;;
27187;SDS011;14708;50.872;5.306;2023-03-14T03:01:22;1.52;;;1.10;;
27187;SDS011;14708;50.872;5.306;2023-03-14T03:03:48;2.10;;;1.30;;
27187;SDS011;14708;50.872;5.306;2023-03-14T03:06:14;2.30;;;1.10;;
27187;SDS011;14708;50.872;5.306;2023-03-14T03:08:40;1.85;;;1.25;;
27187;SDS011;14708;50.872;5.306;2023-03-14T03:11:06;2.50;;;1.20;;
27187;SDS011;14708;50.872;5.306;2023-03-14T03:13:34;1.55;;;1.02;;
27187;SDS011;14708;50.872;5.306;2023-03-14T03:16:00;2.50;;;1.10;;
27187;SDS011;14708;50.872;5.306;2023-03-14T03:18:26;1.85;;;1.30;;
27187;SDS011;14708;50.872;5.306;2023-03-14T03:20:51;2.45;;;1.20;;
27187;SDS011;14708;50.872;5.306;2023-03-14T03:23:17;1.52;;;1.20;;
27187;SDS011;14708;50.872;5.306;2023-03-14T03:25:47;1.33;;;0.98;;
27187;SDS011;14708;50.872;5.306;2023-03-14T03:28:14;2.22;;;1.20;;
27187;SDS011;14708;50.872;5.306;2023-03-14T03:30:40;2.33;;;1.17;;
27187;SDS011;14708;50.872;5.306;2023-03-14T03:33:06;1.20;;;1.00;;
27187;SDS011;14708;50.872;5.306;2023-03-14T03:35:32;1.40;;;1.05;;
27187;SDS011;14708;50.872;5.306;2023-03-14T03:37:58;1.73;;;1.00;;
27187;SDS011;14708;50.872;5.306;2023-03-14T03:40:24;2.22;;;1.38;;
27187;SDS011;14708;50.872;5.306;2023-03-14T03:42:49;2.28;;;1.30;;
27187;SDS011;14708;50.872;5.306;2023-03-14T03:45:15;1.63;;;1.10;;
27187;SDS011;14708;50.872;5.306;2023-03-14T03:47:41;1.92;;;1.10;;
27187;SDS011;14708;50.872;5.306;2023-03-14T03:50:07;1.73;;;1.10;;
27187;SDS011;14708;50.872;5.306;2023-03-14T03:52:33;3.10;;;1.20;;
27187;SDS011;14708;50.872;5.306;2023-03-14T03:54:59;1.17;;;0.88;;
27187;SDS011;14708;50.872;5.306;2023-03-14T03:57:24;1.35;;;0.98;;
27187;SDS011;14708;50.872;5.306;2023-03-14T03:59:50;1.35;;;1.00;;
27187;SDS011;14708;50.872;5.306;2023-03-14T04:02:15;2.30;;;1.13;;
27187;SDS011;14708;50.872;5.306;2023-03-14T04:04:41;1.67;;;1.25;;
27187;SDS011;14708;50.872;5.306;2023-03-14T04:07:07;2.05;;;1.38;;
27187;SDS011;14708;50.872;5.306;2023-03-14T04:09:32;1.45;;;1.00;;
27187;SDS011;14708;50.872;5.306;2023-03-14T04:11:58;2.35;;;1.30;;
27187;SDS011;14708;50.872;5.306;2023-03-14T04:14:24;2.10;;;1.10;;
27187;SDS011;14708;50.872;5.306;2023-03-14T04:16:49;1.55;;;0.90;;
27187;SDS011;14708;50.872;5.306;2023-03-14T04:19:15;1.30;;;1.00;;
27187;SDS011;14708;50.872;5.306;2023-03-14T04:21:40;1.63;;;1.00;;
27187;SDS011;14708;50.872;5.306;2023-03-14T04:24:09;2.38;;;1.10;;
27187;SDS011;14708;50.872;5.306;2023-03-14T04:26:35;1.48;;;1.00;;
27187;SDS011;14708;50.872;5.306;2023-03-14T04:29:01;0.90;;;0.70;;
27187;SDS011;14708;50.872;5.306;2023-03-14T04:31:27;3.42;;;1.33;;
27187;SDS011;14708;50.872;5.306;2023-03-14T04:34:11;1.98;;;1.13;;
27187;SDS011;14708;50.872;5.306;2023-03-14T04:36:37;1.48;;;0.98;;
27187;SDS011;14708;50.872;5.306;2023-03-14T04:39:02;1.55;;;1.00;;
27187;SDS011;14708;50.872;5.306;2023-03-14T04:41:29;1.67;;;1.02;;
27187;SDS011;14708;50.872;5.306;2023-03-14T04:43:55;1.30;;;1.10;;
27187;SDS011;14708;50.872;5.306;2023-03-14T04:46:21;2.28;;;0.90;;
27187;SDS011;14708;50.872;5.306;2023-03-14T04:48:46;1.25;;;1.02;;
27187;SDS011;14708;50.872;5.306;2023-03-14T04:51:12;1.13;;;1.00;;
27187;SDS011;14708;50.872;5.306;2023-03-14T04:53:38;1.08;;;0.85;;
27187;SDS011;14708;50.872;5.306;2023-03-14T04:56:03;1.45;;;1.00;;
27187;SDS011;14708;50.872;5.306;2023-03-14T04:58:29;1.08;;;0.95;;
27187;SDS011;14708;50.872;5.306;2023-03-14T05:00:55;1.33;;;0.93;;
27187;SDS011;14708;50.872;5.306;2023-03-14T05:03:20;1.77;;;1.20;;
27187;SDS011;14708;50.872;5.306;2023-03-14T05:05:46;1.55;;;1.20;;
27187;SDS011;14708;50.872;5.306;2023-03-14T05:08:12;1.25;;;0.82;;
27187;SDS011;14708;50.872;5.306;2023-03-14T05:10:38;1.60;;;1.00;;
27187;SDS011;14708;50.872;5.306;2023-03-14T05:13:03;1.33;;;0.90;;
27187;SDS011;14708;50.872;5.306;2023-03-14T05:15:29;1.63;;;1.13;;
27187;SDS011;14708;50.872;5.306;2023-03-14T05:17:55;2.22;;;1.13;;
27187;SDS011;14708;50.872;5.306;2023-03-14T05:20:20;1.20;;;0.80;;
27187;SDS011;14708;50.872;5.306;2023-03-14T05:22:46;1.63;;;1.02;;
27187;SDS011;14708;50.872;5.306;2023-03-14T05:25:12;1.52;;;1.13;;
27187;SDS011;14708;50.872;5.306;2023-03-14T05:27:38;0.98;;;0.88;;
27187;SDS011;14708;50.872;5.306;2023-03-14T05:30:04;1.95;;;1.30;;
27187;SDS011;14708;50.872;5.306;2023-03-14T05:32:31;1.33;;;0.93;;
27187;SDS011;14708;50.872;5.306;2023-03-14T05:34:57;1.25;;;1.00;;
27187;SDS011;14708;50.872;5.306;2023-03-14T05:37:24;1.67;;;1.00;;
27187;SDS011;14708;50.872;5.306;2023-03-14T05:39:51;1.10;;;0.70;;
27187;SDS011;14708;50.872;5.306;2023-03-14T05:42:16;1.20;;;0.85;;
27187;SDS011;14708;50.872;5.306;2023-03-14T05:44:42;1.63;;;1.15;;
27187;SDS011;14708;50.872;5.306;2023-03-14T05:47:08;1.45;;;1.08;;
27187;SDS011;14708;50.872;5.306;2023-03-14T05:49:33;1.00;;;0.90;;
27187;SDS011;14708;50.872;5.306;2023-03-14T05:51:59;1.25;;;0.77;;
27187;SDS011;14708;50.872;5.306;2023-03-14T05:54:25;1.40;;;1.00;;
27187;SDS011;14708;50.872;5.306;2023-03-14T05:56:50;1.77;;;1.00;;
27187;SDS011;14708;50.872;5.306;2023-03-14T05:59:16;1.20;;;0.90;;
27187;SDS011;14708;50.872;5.306;2023-03-14T06:01:42;1.38;;;0.90;;
27187;SDS011;14708;50.872;5.306;2023-03-14T06:04:07;1.42;;;1.08;;
27187;SDS011;14708;50.872;5.306;2023-03-14T06:06:33;1.40;;;1.00;;
27187;SDS011;14708;50.872;5.306;2023-03-14T06:08:59;1.08;;;0.80;;
27187;SDS011;14708;50.872;5.306;2023-03-14T06:11:24;2.10;;;0.93;;
27187;SDS011;14708;50.872;5.306;2023-03-14T06:13:50;1.27;;;0.90;;
27187;SDS011;14708;50.872;5.306;2023-03-14T06:16:16;1.30;;;1.17;;
27187;SDS011;14708;50.872;5.306;2023-03-14T06:18:42;1.50;;;1.08;;
27187;SDS011;14708;50.872;5.306;2023-03-14T06:21:08;1.17;;;0.85;;
27187;SDS011;14708;50.872;5.306;2023-03-14T06:23:33;1.10;;;0.80;;
27187;SDS011;14708;50.872;5.306;2023-03-14T06:25:59;1.55;;;1.05;;
27187;SDS011;14708;50.872;5.306;2023-03-14T06:28:24;0.90;;;0.73;;
27187;SDS011;14708;50.872;5.306;2023-03-14T06:30:50;1.95;;;1.08;;
27187;SDS011;14708;50.872;5.306;2023-03-14T06:33:16;1.52;;;1.00;;
27187;SDS011;14708;50.872;5.306;2023-03-14T06:35:41;1.17;;;0.82;;
27187;SDS011;14708;50.872;5.306;2023-03-14T06:38:07;0.90;;;0.80;;
27187;SDS011;14708;50.872;5.306;2023-03-14T06:40:33;2.30;;;0.93;;
27187;SDS011;14708;50.872;5.306;2023-03-14T06:42:58;1.83;;;1.00;;
27187;SDS011;14708;50.872;5.306;2023-03-14T06:45:24;0.95;;;0.80;;
27187;SDS011;14708;50.872;5.306;2023-03-14T06:47:49;2.85;;;0.90;;
27187;SDS011;14708;50.872;5.306;2023-03-14T06:50:15;1.55;;;1.10;;
27187;SDS011;14708;50.872;5.306;2023-03-14T06:52:41;1.48;;;0.88;;
27187;SDS011;14708;50.872;5.306;2023-03-14T06:55:12;1.52;;;0.90;;
27187;SDS011;14708;50.872;5.306;2023-03-14T06:57:41;1.27;;;0.95;;
27187;SDS011;14708;50.872;5.306;2023-03-14T07:00:08;1.48;;;0.90;;
27187;SDS011;14708;50.872;5.306;2023-03-14T07:02:34;1.52;;;1.05;;
27187;SDS011;14708;50.872;5.306;2023-03-14T07:04:59;1.60;;;0.93;;
27187;SDS011;14708;50.872;5.306;2023-03-14T07:07:26;2.28;;;1.30;;
27187;SDS011;14708;50.872;5.306;2023-03-14T07:09:52;3.03;;;1.30;;
27187;SDS011;14708;50.872;5.306;2023-03-14T07:12:18;2.45;;;1.00;;
27187;SDS011;14708;50.872;5.306;2023-03-14T07:14:44;9.80;;;1.35;;
27187;SDS011;14708;50.872;5.306;2023-03-14T07:17:10;2.05;;;1.27;;
27187;SDS011;14708;50.872;5.306;2023-03-14T07:19:35;1.92;;;1.15;;
27187;SDS011;14708;50.872;5.306;2023-03-14T07:22:02;2.35;;;1.27;;
27187;SDS011;14708;50.872;5.306;2023-03-14T07:24:29;2.25;;;1.20;;
27187;SDS011;14708;50.872;5.306;2023-03-14T07:26:54;3.60;;;1.25;;
27187;SDS011;14708;50.872;5.306;2023-03-14T07:29:20;2.33;;;1.00;;
27187;SDS011;14708;50.872;5.306;2023-03-14T07:31:46;2.85;;;1.20;;
27187;SDS011;14708;50.872;5.306;2023-03-14T07:34:15;2.85;;;1.25;;
27187;SDS011;14708;50.872;5.306;2023-03-14T07:39:10;2.70;;;1.33;;
27187;SDS011;14708;50.872;5.306;2023-03-14T07:41:35;2.40;;;1.20;;
27187;SDS011;14708;50.872;5.306;2023-03-14T07:44:01;2.03;;;1.23;;
27187;SDS011;14708;50.872;5.306;2023-03-14T07:46:27;1.77;;;1.10;;
27187;SDS011;14708;50.872;5.306;2023-03-14T07:48:52;1.77;;;0.95;;
27187;SDS011;14708;50.872;5.306;2023-03-14T07:51:18;1.35;;;1.00;;
27187;SDS011;14708;50.872;5.306;2023-03-14T07:53:44;2.25;;;1.17;;
27187;SDS011;14708;50.872;5.306;2023-03-14T07:56:10;2.20;;;1.13;;
27187;SDS011;14708;50.872;5.306;2023-03-14T07:58:36;2.22;;;1.10;;
27187;SDS011;14708;50.872;5.306;2023-03-14T08:01:01;2.03;;;1.02;;
27187;SDS011;14708;50.872;5.306;2023-03-14T08:03:29;5.25;;;1.63;;
27187;SDS011;14708;50.872;5.306;2023-03-14T08:05:55;4.78;;;2.13;;
27187;SDS011;14708;50.872;5.306;2023-03-14T08:08:21;6.38;;;2.15;;
27187;SDS011;14708;50.872;5.306;2023-03-14T08:10:46;4.47;;;2.03;;
27187;SDS011;14708;50.872;5.306;2023-03-14T08:13:12;5.13;;;2.20;;
27187;SDS011;14708;50.872;5.306;2023-03-14T08:15:38;4.20;;;1.50;;
27187;SDS011;14708;50.872;5.306;2023-03-14T08:18:04;6.38;;;1.70;;
27187;SDS011;14708;50.872;5.306;2023-03-14T08:20:30;3.67;;;1.52;;
27187;SDS011;14708;50.872;5.306;2023-03-14T08:22:59;3.97;;;1.70;;
27187;SDS011;14708;50.872;5.306;2023-03-14T08:25:26;3.08;;;1.23;;
27187;SDS011;14708;50.872;5.306;2023-03-14T08:27:53;3.72;;;1.58;;
27187;SDS011;14708;50.872;5.306;2023-03-14T08:30:19;3.88;;;1.55;;
27187;SDS011;14708;50.872;5.306;2023-03-14T08:32:46;5.18;;;1.80;;
27187;SDS011;14708;50.872;5.306;2023-03-14T08:35:13;5.07;;;1.63;;
27187;SDS011;14708;50.872;5.306;2023-03-14T08:37:39;9.85;;;2.00;;
27187;SDS011;14708;50.872;5.306;2023-03-14T08:40:05;10.82;;;2.47;;
27187;SDS011;14708;50.872;5.306;2023-03-14T08:42:34;12.43;;;2.55;;
27187;SDS011;14708;50.872;5.306;2023-03-14T08:45:00;7.97;;;1.98;;
27187;SDS011;14708;50.872;5.306;2023-03-14T08:47:26;10.18;;;2.40;;
27187;SDS011;14708;50.872;5.306;2023-03-14T08:49:52;6.20;;;2.55;;
27187;SDS011;14708;50.872;5.306;2023-03-14T08:52:18;5.03;;;2.10;;
27187;SDS011;14708;50.872;5.306;2023-03-14T08:54:43;9.38;;;2.30;;
27187;SDS011;14708;50.872;5.306;2023-03-14T08:57:09;10.35;;;2.72;;
27187;SDS011;14708;50.872;5.306;2023-03-14T08:59:35;9.73;;;2.80;;
27187;SDS011;14708;50.872;5.306;2023-03-14T09:02:01;11.70;;;2.63;;
27187;SDS011;14708;50.872;5.306;2023-03-14T09:04:28;8.32;;;2.47;;
27187;SDS011;14708;50.872;5.306;2023-03-14T09:06:55;9.27;;;2.45;;
27187;SDS011;14708;50.872;5.306;2023-03-14T09:09:22;8.55;;;2.70;;
27187;SDS011;14708;50.872;5.306;2023-03-14T09:11:48;8.65;;;2.97;;
27187;SDS011;14708;50.872;5.306;2023-03-14T09:14:15;8.75;;;2.90;;
27187;SDS011;14708;50.872;5.306;2023-03-14T09:16:41;8.32;;;2.72;;
27187;SDS011;14708;50.872;5.306;2023-03-14T09:19:06;8.15;;;2.75;;
27187;SDS011;14708;50.872;5.306;2023-03-14T09:21:32;6.80;;;2.30;;
27187;SDS011;14708;50.872;5.306;2023-03-14T09:23:58;8.15;;;2.55;;
27187;SDS011;14708;50.872;5.306;2023-03-14T09:26:23;11.88;;;2.72;;
27187;SDS011;14708;50.872;5.306;2023-03-14T09:28:49;8.02;;;2.78;;
27187;SDS011;14708;50.872;5.306;2023-03-14T09:31:15;8.70;;;2.70;;
27187;SDS011;14708;50.872;5.306;2023-03-14T09:33:41;6.85;;;2.35;;
27187;SDS011;14708;50.872;5.306;2023-03-14T09:36:07;9.27;;;2.70;;
27187;SDS011;14708;50.872;5.306;2023-03-14T09:38:33;7.18;;;2.35;;
27187;SDS011;14708;50.872;5.306;2023-03-14T09:41:00;6.80;;;2.80;;
27187;SDS011;14708;50.872;5.306;2023-03-14T09:43:28;9.95;;;2.83;;
27187;SDS011;14708;50.872;5.306;2023-03-14T09:48:27;9.10;;;3.15;;
27187;SDS011;14708;50.872;5.306;2023-03-14T09:50:55;7.20;;;2.60;;
27187;SDS011;14708;50.872;5.306;2023-03-14T09:53:24;9.40;;;2.58;;
27187;SDS011;14708;50.872;5.306;2023-03-14T09:55:52;7.93;;;2.55;;
27187;SDS011;14708;50.872;5.306;2023-03-14T09:58:20;10.98;;;3.53;;
27187;SDS011;14708;50.872;5.306;2023-03-14T10:00:52;10.52;;;2.85;;
27187;SDS011;14708;50.872;5.306;2023-03-14T10:03:29;12.73;;;3.10;;
27187;SDS011;14708;50.872;5.306;2023-03-14T10:05:57;8.95;;;2.78;;
27187;SDS011;14708;50.872;5.306;2023-03-14T10:08:23;12.48;;;2.88;;
27187;SDS011;14708;50.872;5.306;2023-03-14T10:10:50;7.35;;;2.40;;
27187;SDS011;14708;50.872;5.306;2023-03-14T10:13:23;6.45;;;2.63;;
27187;SDS011;14708;50.872;5.306;2023-03-14T10:15:53;8.68;;;2.15;;
27187;SDS011;14708;50.872;5.306;2023-03-14T10:18:28;6.22;;;2.25;;
27187;SDS011;14708;50.872;5.306;2023-03-14T10:23:51;9.82;;;2.63;;
27187;SDS011;14708;50.872;5.306;2023-03-14T10:26:18;6.72;;;2.67;;
27187;SDS011;14708;50.872;5.306;2023-03-14T10:28:52;6.78;;;2.30;;
27187;SDS011;14708;50.872;5.306;2023-03-14T10:31:26;8.73;;;2.47;;
27187;SDS011;14708;50.872;5.306;2023-03-14T10:33:58;9.23;;;2.63;;
27187;SDS011;14708;50.872;5.306;2023-03-14T10:36:29;8.95;;;2.35;;
27187;SDS011;14708;50.872;5.306;2023-03-14T10:45:25;7.47;;;2.88;;
27187;SDS011;14708;50.872;5.306;2023-03-14T10:47:58;5.43;;;2.05;;
27187;SDS011;14708;50.872;5.306;2023-03-14T10:50:31;5.78;;;2.60;;
27187;SDS011;14708;50.872;5.306;2023-03-14T10:52:57;6.30;;;2.45;;
27187;SDS011;14708;50.872;5.306;2023-03-14T10:55:39;10.23;;;2.60;;
27187;SDS011;14708;50.872;5.306;2023-03-14T10:58:16;7.53;;;2.35;;
27187;SDS011;14708;50.872;5.306;2023-03-14T11:03:39;9.57;;;2.80;;
27187;SDS011;14708;50.872;5.306;2023-03-14T11:06:14;7.28;;;2.63;;
27187;SDS011;14708;50.872;5.306;2023-03-14T11:08:54;8.80;;;2.63;;
27187;SDS011;14708;50.872;5.306;2023-03-14T11:11:30;6.10;;;2.40;;
27187;SDS011;14708;50.872;5.306;2023-03-14T11:16:46;5.43;;;2.20;;
27187;SDS011;14708;50.872;5.306;2023-03-14T11:30:22;9.30;;;2.60;;
27187;SDS011;14708;50.872;5.306;2023-03-14T11:40:52;6.90;;;2.40;;
27187;SDS011;14708;50.872;5.306;2023-03-14T11:46:09;10.75;;;2.78;;
27187;SDS011;14708;50.872;5.306;2023-03-14T11:48:45;12.95;;;3.25;;
27187;SDS011;14708;50.872;5.306;2023-03-14T11:51:28;12.35;;;3.65;;
27187;SDS011;14708;50.872;5.306;2023-03-14T11:56:54;10.65;;;3.40;;
27187;SDS011;14708;50.872;5.306;2023-03-14T11:59:25;7.28;;;2.97;;
27187;SDS011;14708;50.872;5.306;2023-03-14T12:02:12;9.93;;;3.13;;
27187;SDS011;14708;50.872;5.306;2023-03-14T12:10:37;8.18;;;2.90;;
27187;SDS011;14708;50.872;5.306;2023-03-14T12:13:14;8.75;;;3.63;;
27187;SDS011;14708;50.872;5.306;2023-03-14T12:15:42;10.55;;;3.03;;
27187;SDS011;14708;50.872;5.306;2023-03-14T12:18:21;8.02;;;2.97;;
27187;SDS011;14708;50.872;5.306;2023-03-14T12:21:01;7.45;;;2.80;;
27187;SDS011;14708;50.872;5.306;2023-03-14T12:31:43;8.75;;;2.80;;
27187;SDS011;14708;50.872;5.306;2023-03-14T12:34:33;4.65;;;2.33;;
27187;SDS011;14708;50.872;5.306;2023-03-14T12:37:16;8.57;;;3.13;;
27187;SDS011;14708;50.872;5.306;2023-03-14T12:45:24;7.75;;;2.72;;
27187;SDS011;14708;50.872;5.306;2023-03-14T12:47:55;7.22;;;2.88;;
27187;SDS011;14708;50.872;5.306;2023-03-14T12:50:32;8.65;;;2.67;;
27187;SDS011;14708;50.872;5.306;2023-03-14T12:55:56;5.75;;;2.38;;
27187;SDS011;14708;50.872;5.306;2023-03-14T12:58:39;6.55;;;2.35;;
27187;SDS011;14708;50.872;5.306;2023-03-14T13:01:16;7.40;;;3.13;;
27187;SDS011;14708;50.872;5.306;2023-03-14T13:03:45;6.05;;;2.67;;
27187;SDS011;14708;50.872;5.306;2023-03-14T13:12:22;5.10;;;2.08;;
27187;SDS011;14708;50.872;5.306;2023-03-14T13:14:52;6.18;;;2.25;;
27187;SDS011;14708;50.872;5.306;2023-03-14T13:17:26;4.68;;;2.55;;
27187;SDS011;14708;50.872;5.306;2023-03-14T13:19:56;6.43;;;2.65;;
27187;SDS011;14708;50.872;5.306;2023-03-14T13:22:27;6.57;;;2.20;;
27187;SDS011;14708;50.872;5.306;2023-03-14T13:25:02;6.32;;;2.53;;
27187;SDS011;14708;50.872;5.306;2023-03-14T13:27:30;4.78;;;2.17;;
27187;SDS011;14708;50.872;5.306;2023-03-14T13:29:58;5.63;;;2.03;;
27187;SDS011;14708;50.872;5.306;2023-03-14T13:32:28;5.90;;;2.38;;
27187;SDS011;14708;50.872;5.306;2023-03-14T13:34:57;6.55;;;2.30;;
27187;SDS011;14708;50.872;5.306;2023-03-14T13:37:24;6.53;;;2.47;;
27187;SDS011;14708;50.872;5.306;2023-03-14T13:39:54;8.07;;;2.80;;
27187;SDS011;14708;50.872;5.306;2023-03-14T13:42:25;7.03;;;2.38;;
27187;SDS011;14708;50.872;5.306;2023-03-14T13:44:53;5.28;;;2.50;;
27187;SDS011;14708;50.872;5.306;2023-03-14T13:47:21;7.18;;;2.20;;
27187;SDS011;14708;50.872;5.306;2023-03-14T13:49:48;6.30;;;2.53;;
27187;SDS011;14708;50.872;5.306;2023-03-14T13:52:22;5.40;;;2.17;;
27187;SDS011;14708;50.872;5.306;2023-03-14T13:54:56;5.63;;;2.10;;
27187;SDS011;14708;50.872;5.306;2023-03-14T13:57:23;9.05;;;2.70;;
27187;SDS011;14708;50.872;5.306;2023-03-14T14:00:03;4.97;;;2.33;;
27187;SDS011;14708;50.872;5.306;2023-03-14T14:02:33;5.55;;;2.03;;
27187;SDS011;14708;50.872;5.306;2023-03-14T14:07:26;4.75;;;2.20;;
27187;SDS011;14708;50.872;5.306;2023-03-14T14:09:53;7.68;;;2.10;;
27187;SDS011;14708;50.872;5.306;2023-03-14T14:14:57;4.63;;;1.95;;
27187;SDS011;14708;50.872;5.306;2023-03-14T14:17:28;4.70;;;2.42;;
27187;SDS011;14708;50.872;5.306;2023-03-14T14:20:00;5.90;;;2.13;;
27187;SDS011;14708;50.872;5.306;2023-03-14T14:22:30;4.55;;;1.75;;
27187;SDS011;14708;50.872;5.306;2023-03-14T14:24:57;6.60;;;2.03;;
27187;SDS011;14708;50.872;5.306;2023-03-14T14:27:32;4.90;;;1.75;;
27187;SDS011;14708;50.872;5.306;2023-03-14T14:30:02;5.40;;;2.15;;
27187;SDS011;14708;50.872;5.306;2023-03-14T14:32:34;3.13;;;1.42;;
27187;SDS011;14708;50.872;5.306;2023-03-14T14:35:01;7.55;;;2.42;;
27187;SDS011;14708;50.872;5.306;2023-03-14T14:37:30;4.95;;;2.10;;
27187;SDS011;14708;50.872;5.306;2023-03-14T14:40:14;4.72;;;2.40;;
27187;SDS011;14708;50.872;5.306;2023-03-14T14:42:45;7.68;;;2.78;;
27187;SDS011;14708;50.872;5.306;2023-03-14T14:45:13;5.47;;;1.95;;
27187;SDS011;14708;50.872;5.306;2023-03-14T14:47:51;8.60;;;2.08;;
27187;SDS011;14708;50.872;5.306;2023-03-14T14:52:57;5.13;;;2.28;;
27187;SDS011;14708;50.872;5.306;2023-03-14T14:55:28;4.95;;;1.55;;
27187;SDS011;14708;50.872;5.306;2023-03-14T14:57:57;5.55;;;2.35;;
27187;SDS011;14708;50.872;5.306;2023-03-14T15:00:23;8.60;;;3.00;;
27187;SDS011;14708;50.872;5.306;2023-03-14T15:02:52;17.73;;;5.13;;
27187;SDS011;14708;50.872;5.306;2023-03-14T15:05:24;23.15;;;9.70;;
27187;SDS011;14708;50.872;5.306;2023-03-14T15:07:51;45.75;;;16.58;;
27187;SDS011;14708;50.872;5.306;2023-03-14T15:10:21;34.58;;;11.45;;
27187;SDS011;14708;50.872;5.306;2023-03-14T15:12:49;28.95;;;8.82;;
27187;SDS011;14708;50.872;5.306;2023-03-14T15:15:15;27.80;;;9.38;;
27187;SDS011;14708;50.872;5.306;2023-03-14T15:17:41;28.60;;;8.57;;
27187;SDS011;14708;50.872;5.306;2023-03-14T15:20:11;29.92;;;10.13;;
27187;SDS011;14708;50.872;5.306;2023-03-14T15:22:41;33.20;;;10.20;;
27187;SDS011;14708;50.872;5.306;2023-03-14T15:25:07;29.23;;;10.37;;
27187;SDS011;14708;50.872;5.306;2023-03-14T15:27:35;34.13;;;10.32;;
27187;SDS011;14708;50.872;5.306;2023-03-14T15:30:01;41.40;;;11.20;;
27187;SDS011;14708;50.872;5.306;2023-03-14T15:32:27;32.30;;;11.45;;
27187;SDS011;14708;50.872;5.306;2023-03-14T15:34:56;33.05;;;11.27;;
27187;SDS011;14708;50.872;5.306;2023-03-14T15:37:21;28.75;;;9.52;;
27187;SDS011;14708;50.872;5.306;2023-03-14T15:39:47;24.95;;;8.75;;
27187;SDS011;14708;50.872;5.306;2023-03-14T15:42:14;26.60;;;9.10;;
27187;SDS011;14708;50.872;5.306;2023-03-14T15:44:39;27.83;;;9.18;;
27187;SDS011;14708;50.872;5.306;2023-03-14T15:47:05;24.70;;;7.85;;
27187;SDS011;14708;50.872;5.306;2023-03-14T15:49:32;27.77;;;8.82;;
27187;SDS011;14708;50.872;5.306;2023-03-14T15:51:58;24.15;;;8.60;;
27187;SDS011;14708;50.872;5.306;2023-03-14T15:54:24;27.63;;;8.80;;
27187;SDS011;14708;50.872;5.306;2023-03-14T15:59:21;26.38;;;8.38;;
27187;SDS011;14708;50.872;5.306;2023-03-14T16:01:47;27.42;;;7.85;;
27187;SDS011;14708;50.872;5.306;2023-03-14T16:04:13;18.40;;;7.88;;
27187;SDS011;14708;50.872;5.306;2023-03-14T16:06:39;23.90;;;8.40;;
27187;SDS011;14708;50.872;5.306;2023-03-14T16:09:06;25.65;;;7.82;;
27187;SDS011;14708;50.872;5.306;2023-03-14T16:11:32;28.55;;;8.15;;
27187;SDS011;14708;50.872;5.306;2023-03-14T16:13:57;23.05;;;7.35;;
27187;SDS011;14708;50.872;5.306;2023-03-14T16:16:25;22.92;;;8.95;;
27187;SDS011;14708;50.872;5.306;2023-03-14T16:18:51;26.30;;;8.25;;
27187;SDS011;14708;50.872;5.306;2023-03-14T16:21:17;20.55;;;8.10;;
27187;SDS011;14708;50.872;5.306;2023-03-14T16:23:44;22.40;;;7.38;;
27187;SDS011;14708;50.872;5.306;2023-03-14T16:26:12;20.10;;;6.93;;